Terminal Aerodrome Forecast
Issued by NWS Austin/San Antonio, TX

Home | Current Version | Previous Version | Text Only | Print | Product List | Glossary On
Versions: 1 2 3 4 5 6 7 8 9 10 11 12 13 14 15 16 17 18 19 20 21 22 23 24 25 26 27 28 29 30
000
FTUS44 KEWX 190521
TAFAUS
TAF
KAUS 190521Z 1906/2012 14008KT P6SM FEW035 SCT070 BKN090
     FM190800 21005KT 5SM BR BKN015
      TEMPO 1910/1912 3SM BR OVC005
     FM191500 21010G20KT P6SM BKN025
     FM191600 24015G27KT P6SM SCT040
     FM200000 35012KT P6SM SKC=

USA.gov is the U.S. government's official web portal to all federal, state and local government web resources and services.